createdAt,value
2022-12-03T00:02:18.845Z,94.06
2022-12-03T00:04:45.375Z,94.25
2022-12-03T00:07:11.685Z,93.84
2022-12-03T00:09:38.042Z,95.54
2022-12-03T00:12:04.608Z,94.21
2022-12-03T00:14:31.039Z,94.37
2022-12-03T00:16:57.428Z,93.46
2022-12-03T00:19:23.832Z,94.72
2022-12-03T00:21:50.183Z,94.28
2022-12-03T00:24:16.647Z,94.08
2022-12-03T00:26:42.985Z,94.55
2022-12-03T00:29:09.354Z,94.65
2022-12-03T00:31:35.841Z,94.16
2022-12-03T00:34:02.290Z,94.68
2022-12-03T00:36:28.646Z,94.85
2022-12-03T00:38:55.166Z,94.76
2022-12-03T00:41:21.615Z,95.25
2022-12-03T00:43:47.932Z,94.95
2022-12-03T00:46:18.269Z,95.32
2022-12-03T00:48:47.546Z,94.99
2022-12-03T00:51:13.920Z,95.20
2022-12-03T00:53:40.404Z,95.16
2022-12-03T00:56:06.900Z,95.35
2022-12-03T00:58:33.298Z,94.84
2022-12-03T01:00:59.633Z,94.76
2022-12-03T01:03:26.169Z,95.37
2022-12-03T01:05:52.588Z,95.00
2022-12-03T01:08:18.887Z,95.36
2022-12-03T01:10:45.479Z,95.78
2022-12-03T01:13:11.921Z,95.55
2022-12-03T01:15:38.260Z,95.46
2022-12-03T01:18:04.689Z,95.21
2022-12-03T01:20:31.013Z,95.48
2022-12-03T01:22:57.460Z,95.23
2022-12-03T01:25:23.790Z,95.13
2022-12-03T01:27:50.163Z,94.94
2022-12-03T01:30:16.495Z,95.07
2022-12-03T01:32:42.927Z,94.54
2022-12-03T01:35:09.235Z,93.90
2022-12-03T01:37:35.697Z,93.18
2022-12-03T01:40:02.092Z,93.48
2022-12-03T01:42:35.410Z,93.56
2022-12-03T01:45:04.062Z,93.46
2022-12-03T01:47:34.222Z,93.71
2022-12-03T01:50:23.242Z,92.97
2022-12-03T01:52:49.888Z,92.84
2022-12-03T01:55:26.523Z,92.85
2022-12-03T01:57:57.109Z,92.48
2022-12-03T02:00:25.464Z,92.71
2022-12-03T02:02:55.533Z,92.42
2022-12-03T02:05:24.925Z,93.07
2022-12-03T02:07:51.573Z,93.30
2022-12-03T02:10:25.920Z,92.68
2022-12-03T02:13:01.088Z,93.10
2022-12-03T02:15:27.657Z,93.01
2022-12-03T02:17:55.236Z,93.07
2022-12-03T02:20:22.182Z,92.51
2022-12-03T02:22:55.888Z,92.60
2022-12-03T02:25:30.742Z,92.00
2022-12-03T02:27:58.393Z,92.17
2022-12-03T02:30:27.214Z,92.15
2022-12-03T02:32:54.885Z,91.63
2022-12-03T02:35:24.865Z,91.77
2022-12-03T02:38:17.151Z,91.75
2022-12-03T02:40:45.726Z,91.80
2022-12-03T02:43:15.918Z,91.26
2022-12-03T02:45:48.354Z,91.72
2022-12-03T02:48:26.212Z,92.01
2022-12-03T02:50:55.795Z,91.91
2022-12-03T02:53:29.590Z,91.42
2022-12-03T02:55:58.964Z,91.54
2022-12-03T02:58:27.127Z,91.88
2022-12-03T03:00:54.738Z,91.81
2022-12-03T03:03:23.049Z,91.57
2022-12-03T03:05:50.225Z,91.37
2022-12-03T03:08:17.819Z,91.78
2022-12-03T03:10:45.125Z,91.94
2022-12-03T03:13:14.183Z,92.25
2022-12-03T03:15:42.251Z,91.39
2022-12-03T03:18:10.053Z,91.53
2022-12-03T03:20:37.308Z,91.60
2022-12-03T03:23:18.278Z,92.25
2022-12-03T03:25:48.074Z,92.51
2022-12-03T03:28:15.874Z,92.43
2022-12-03T03:30:43.845Z,92.14
2022-12-03T03:33:11.391Z,92.06
2022-12-03T03:35:38.397Z,92.22
2022-12-03T03:38:07.355Z,92.05
2022-12-03T03:40:33.957Z,92.02
2022-12-03T03:43:01.111Z,92.26
2022-12-03T03:45:29.639Z,92.66
2022-12-03T03:47:58.909Z,93.00
2022-12-03T03:50:28.333Z,92.53
2022-12-03T03:52:56.186Z,93.09
2022-12-03T03:55:22.985Z,92.72
2022-12-03T03:57:49.527Z,93.13
2022-12-03T04:00:16.127Z,92.97
2022-12-03T04:02:43.401Z,93.36
2022-12-03T04:05:19.400Z,94.11
2022-12-03T04:07:46.266Z,93.88
2022-12-03T04:10:13.691Z,94.89
2022-12-03T04:12:40.061Z,95.51
2022-12-03T04:15:07.205Z,95.23
2022-12-03T04:17:33.582Z,95.96
2022-12-03T04:19:59.875Z,95.34
2022-12-03T04:22:26.325Z,95.22
2022-12-03T04:24:53.004Z,95.71
2022-12-03T04:27:19.500Z,95.70
2022-12-03T04:29:45.875Z,95.41
2022-12-03T04:32:12.144Z,94.84
2022-12-03T04:34:38.543Z,95.20
2022-12-03T04:37:05.194Z,94.65
2022-12-03T04:39:31.711Z,95.07
2022-12-03T04:41:58.054Z,93.78
2022-12-03T04:44:24.530Z,93.62
2022-12-03T04:46:50.849Z,93.72
2022-12-03T04:49:17.260Z,92.79
2022-12-03T04:51:43.612Z,93.04
2022-12-03T04:54:10.053Z,92.79
2022-12-03T04:56:36.367Z,92.39
2022-12-03T04:59:03.124Z,92.92
2022-12-03T05:01:29.570Z,92.69
2022-12-03T05:03:56.005Z,92.54
2022-12-03T05:06:22.416Z,92.84
2022-12-03T05:08:48.864Z,92.57
2022-12-03T05:11:15.125Z,91.25
2022-12-03T05:13:43.130Z,91.52
2022-12-03T05:16:09.771Z,92.08
2022-12-03T05:18:36.135Z,91.26
2022-12-03T05:21:02.615Z,90.67
2022-12-03T05:23:28.997Z,90.45
2022-12-03T05:25:55.346Z,89.28
2022-12-03T05:28:21.828Z,89.28
2022-12-03T05:30:48.254Z,87.81
2022-12-03T05:33:14.686Z,88.58
2022-12-03T05:35:41.002Z,88.92
2022-12-03T05:38:07.349Z,88.80
2022-12-03T05:40:33.655Z,87.77
2022-12-03T05:43:00.085Z,87.92
2022-12-03T05:45:26.392Z,88.24
2022-12-03T05:47:54.012Z,88.04
2022-12-03T05:50:22.266Z,87.77
2022-12-03T05:52:49.146Z,87.79
2022-12-03T05:55:16.459Z,88.52
2022-12-03T05:57:43.132Z,88.32
2022-12-03T06:00:18.209Z,88.43
2022-12-03T06:02:44.815Z,88.57
2022-12-03T06:05:12.842Z,87.71
2022-12-03T06:07:39.648Z,87.12
2022-12-03T06:10:07.810Z,86.93
2022-12-03T06:12:34.322Z,87.18
2022-12-03T06:15:00.777Z,86.72
2022-12-03T06:17:27.500Z,86.35
2022-12-03T06:19:53.892Z,87.05
2022-12-03T06:22:20.201Z,86.34
2022-12-03T06:24:46.699Z,87.19
2022-12-03T06:27:13.110Z,87.72
2022-12-03T06:29:39.468Z,86.63
2022-12-03T06:32:06.264Z,86.87
2022-12-03T06:34:32.665Z,87.00
2022-12-03T06:36:58.979Z,87.53
2022-12-03T06:39:25.387Z,88.37
2022-12-03T06:41:51.641Z,88.28
2022-12-03T06:44:18.008Z,88.71
2022-12-03T06:46:44.412Z,88.26
2022-12-03T06:49:10.720Z,88.89
2022-12-03T06:51:37.855Z,90.23
2022-12-03T06:54:05.242Z,89.61
2022-12-03T06:56:36.744Z,89.08
2022-12-03T06:59:03.372Z,89.52
2022-12-03T07:01:29.736Z,89.03
2022-12-03T07:03:56.174Z,89.45
2022-12-03T07:06:22.491Z,89.33
2022-12-03T07:08:48.850Z,89.49
2022-12-03T07:11:15.157Z,89.54
2022-12-03T07:13:41.530Z,89.36
2022-12-03T07:16:07.883Z,89.38
2022-12-03T07:18:34.269Z,89.65
2022-12-03T07:21:00.768Z,89.88
2022-12-03T07:23:27.115Z,89.76
2022-12-03T07:25:53.520Z,90.03
2022-12-03T07:28:19.927Z,89.59
2022-12-03T07:30:46.317Z,89.61
2022-12-03T07:33:12.661Z,90.05
2022-12-03T07:35:39.065Z,89.50
2022-12-03T07:38:05.288Z,89.25
2022-12-03T07:40:31.644Z,89.49
2022-12-03T07:42:58.030Z,89.72
2022-12-03T07:45:24.367Z,90.33
2022-12-03T07:47:50.761Z,90.27
2022-12-03T07:50:17.174Z,89.84
2022-12-03T07:52:43.605Z,89.51
2022-12-03T07:55:11.056Z,90.50
2022-12-03T07:57:37.496Z,89.67
2022-12-03T08:00:04.365Z,89.76
2022-12-03T08:02:31.136Z,89.97
2022-12-03T08:04:57.655Z,89.78
2022-12-03T08:07:24.083Z,89.44
2022-12-03T08:09:50.700Z,90.13
2022-12-03T08:12:22.977Z,89.73
2022-12-03T08:14:49.581Z,90.29
2022-12-03T08:17:16.056Z,89.92
2022-12-03T08:19:45.121Z,90.52
2022-12-03T08:22:14.230Z,90.61
2022-12-03T08:24:40.799Z,91.01
2022-12-03T08:27:17.954Z,90.53
2022-12-03T08:29:45.496Z,90.95
2022-12-03T08:32:12.684Z,91.19
2022-12-03T08:34:41.889Z,90.91
2022-12-03T08:37:26.202Z,91.09
2022-12-03T08:39:54.805Z,91.07
2022-12-03T08:42:26.356Z,90.88
2022-12-03T08:44:53.119Z,91.27
2022-12-03T08:47:21.661Z,91.50
2022-12-03T08:49:54.743Z,92.08
2022-12-03T08:52:23.154Z,90.96
2022-12-03T08:54:56.195Z,91.71
2022-12-03T08:57:32.129Z,91.59
2022-12-03T09:00:23.654Z,91.61
2022-12-03T09:02:53.238Z,91.17
2022-12-03T09:05:21.118Z,91.96
2022-12-03T09:07:47.485Z,92.62
2022-12-03T09:10:13.852Z,92.60
2022-12-03T09:12:40.259Z,92.91
2022-12-03T09:15:06.887Z,92.06
2022-12-03T09:17:33.390Z,91.63
2022-12-03T09:19:59.835Z,91.92
2022-12-03T09:22:26.240Z,91.82
2022-12-03T09:24:52.851Z,91.82
2022-12-03T09:27:19.442Z,91.92
2022-12-03T09:29:45.761Z,92.38
2022-12-03T09:32:16.759Z,91.93
2022-12-03T09:34:44.765Z,91.72
2022-12-03T09:37:11.121Z,92.02
2022-12-03T09:39:37.499Z,92.15
2022-12-03T09:42:04.138Z,92.60
2022-12-03T09:44:33.854Z,92.99
2022-12-03T09:47:01.785Z,93.46
2022-12-03T09:49:30.342Z,94.12
2022-12-03T09:51:58.683Z,93.13
2022-12-03T09:54:27.744Z,93.64
2022-12-03T09:56:56.338Z,93.99
2022-12-03T09:59:26.020Z,93.57
2022-12-03T10:01:54.209Z,93.43
2022-12-03T10:04:21.273Z,93.55
2022-12-03T10:06:47.973Z,92.90
2022-12-03T10:09:22.156Z,93.00
2022-12-03T10:11:48.635Z,93.21
2022-12-03T10:14:18.399Z,93.58
2022-12-03T10:16:45.861Z,92.09
2022-12-03T10:19:21.860Z,92.49
2022-12-03T10:21:48.425Z,93.68
2022-12-03T10:24:31.434Z,93.69
2022-12-03T10:27:03.775Z,94.01
2022-12-03T10:29:34.551Z,93.74
2022-12-03T10:32:02.667Z,93.16
2022-12-03T10:34:32.371Z,93.59
2022-12-03T10:37:10.742Z,93.02
2022-12-03T10:39:56.288Z,93.70
2022-12-03T10:42:23.710Z,93.01
2022-12-03T10:45:06.184Z,93.36
2022-12-03T10:47:32.655Z,92.45
2022-12-03T10:50:06.999Z,92.40
2022-12-03T10:52:33.558Z,91.67
2022-12-03T10:54:59.962Z,92.30
2022-12-03T10:57:26.409Z,92.42
2022-12-03T10:59:52.762Z,92.09
2022-12-03T11:02:24.125Z,92.03
2022-12-03T11:04:51.829Z,92.66
2022-12-03T11:07:20.948Z,92.76
2022-12-03T11:09:50.760Z,92.04
2022-12-03T11:12:26.940Z,91.27
2022-12-03T11:14:56.522Z,91.11
2022-12-03T11:17:49.426Z,91.50
2022-12-03T11:20:24.916Z,91.41
2022-12-03T11:22:55.684Z,92.70
2022-12-03T11:25:24.739Z,93.33
2022-12-03T11:28:12.794Z,93.52
2022-12-03T11:30:48.434Z,94.02
2022-12-03T11:33:21.993Z,94.00
2022-12-03T11:36:03.892Z,93.79
2022-12-03T11:38:41.277Z,94.24
2022-12-03T11:41:09.095Z,94.30
2022-12-03T11:43:53.727Z,94.73
2022-12-03T11:46:30.332Z,93.69
2022-12-03T11:48:59.244Z,92.55
2022-12-03T11:51:29.002Z,92.65
2022-12-03T11:53:58.516Z,92.25
2022-12-03T11:56:27.861Z,92.10
2022-12-03T11:59:02.577Z,92.11
2022-12-03T12:01:38.512Z,91.69
2022-12-03T12:04:06.965Z,91.66
2022-12-03T12:06:48.723Z,91.52
2022-12-03T12:09:49.739Z,92.21
2022-12-03T12:12:30.636Z,91.57
2022-12-03T12:14:58.555Z,90.72
2022-12-03T12:17:33.987Z,91.09
2022-12-03T12:20:23.666Z,91.33
2022-12-03T12:22:50.400Z,90.99
2022-12-03T12:25:35.062Z,90.43
2022-12-03T12:28:01.442Z,89.66
2022-12-03T12:30:27.744Z,89.94
2022-12-03T12:33:18.968Z,90.09
2022-12-03T12:35:45.439Z,89.55
2022-12-03T12:38:15.950Z,89.72
2022-12-03T12:40:44.707Z,88.72
2022-12-03T12:43:27.284Z,88.36
2022-12-03T12:46:13.551Z,87.45
2022-12-03T12:48:47.339Z,87.54
2022-12-03T12:51:18.171Z,87.38
2022-12-03T12:53:44.812Z,87.75
2022-12-03T12:56:24.997Z,86.09
2022-12-03T12:58:52.327Z,85.95
2022-12-03T13:01:30.218Z,85.78
2022-12-03T13:03:57.167Z,85.85
2022-12-03T13:06:30.148Z,85.67
2022-12-03T13:08:58.453Z,85.83
2022-12-03T13:11:24.774Z,85.66
2022-12-03T13:13:51.853Z,86.60
2022-12-03T13:16:19.659Z,86.49
2022-12-03T13:18:47.231Z,86.90
2022-12-03T13:21:24.226Z,86.26
2022-12-03T13:23:57.502Z,86.89
2022-12-03T13:26:39.001Z,86.95
2022-12-03T13:29:13.521Z,85.95
2022-12-03T13:31:44.199Z,86.88
2022-12-03T13:34:21.122Z,87.04
2022-12-03T13:36:53.617Z,87.56
2022-12-03T13:39:36.651Z,88.31
2022-12-03T13:42:22.970Z,88.12
2022-12-03T13:44:50.566Z,88.18
2022-12-03T13:47:20.721Z,88.15
2022-12-03T13:49:52.479Z,87.71
2022-12-03T13:52:22.181Z,88.86
2022-12-03T13:54:51.974Z,88.61
2022-12-03T13:57:18.474Z,88.72
2022-12-03T13:59:44.859Z,88.68
2022-12-03T14:02:11.230Z,89.55
2022-12-03T14:04:37.632Z,89.05
2022-12-03T14:07:04.220Z,89.12
2022-12-03T14:09:30.929Z,88.35
2022-12-03T14:11:57.661Z,88.32
2022-12-03T14:14:24.173Z,88.23
2022-12-03T14:16:53.086Z,88.03
2022-12-03T14:19:23.532Z,88.15
2022-12-03T14:21:49.931Z,89.56
2022-12-03T14:24:16.345Z,89.13
2022-12-03T14:26:42.814Z,88.76
2022-12-03T14:29:09.234Z,89.15
2022-12-03T14:31:35.790Z,88.91
2022-12-03T14:34:02.317Z,88.99
2022-12-03T14:36:28.648Z,89.59
2022-12-03T14:38:55.131Z,89.49
2022-12-03T14:41:21.448Z,89.54
2022-12-03T14:43:47.837Z,89.43
2022-12-03T14:46:14.309Z,90.27
2022-12-03T14:48:40.659Z,89.74
2022-12-03T14:51:07.012Z,89.12
2022-12-03T14:53:33.379Z,88.95
2022-12-03T14:55:59.727Z,89.49
2022-12-03T14:58:26.081Z,89.96
2022-12-03T15:00:52.661Z,90.45
2022-12-03T15:03:19.228Z,89.89
2022-12-03T15:05:45.526Z,88.69
2022-12-03T15:08:12.028Z,89.72
2022-12-03T15:10:38.454Z,89.50
2022-12-03T15:13:04.841Z,90.30
2022-12-03T15:15:31.192Z,89.82
2022-12-03T15:17:57.603Z,89.58
2022-12-03T15:20:23.982Z,89.42
2022-12-03T15:22:50.499Z,89.17
2022-12-03T15:25:16.865Z,89.16
2022-12-03T15:27:43.248Z,90.02
2022-12-03T15:30:10.012Z,89.52
2022-12-03T15:32:36.483Z,89.82
2022-12-03T15:35:02.895Z,90.83
2022-12-03T15:37:29.315Z,89.97
2022-12-03T15:39:56.084Z,89.76
2022-12-03T15:42:22.755Z,89.17
2022-12-03T15:44:49.140Z,88.78
2022-12-03T15:47:15.553Z,89.00
2022-12-03T15:49:42.046Z,89.44
2022-12-03T15:52:08.456Z,89.73
2022-12-03T15:54:34.995Z,89.95
2022-12-03T15:57:01.363Z,89.92
2022-12-03T15:59:29.113Z,90.20
2022-12-03T16:01:55.631Z,89.99
2022-12-03T16:04:22.095Z,90.32
2022-12-03T16:06:48.648Z,89.94
2022-12-03T16:09:14.998Z,90.15
2022-12-03T16:11:41.364Z,89.62
2022-12-03T16:14:07.795Z,89.86
2022-12-03T16:16:34.281Z,90.48
2022-12-03T16:19:00.884Z,90.44
2022-12-03T16:21:27.539Z,90.72
2022-12-03T16:23:54.633Z,90.27
2022-12-03T16:26:21.685Z,89.64
2022-12-03T16:28:48.108Z,89.77
2022-12-03T16:31:14.481Z,90.13
2022-12-03T16:33:40.895Z,90.37
2022-12-03T16:36:07.621Z,89.98
2022-12-03T16:38:34.017Z,90.33
2022-12-03T16:41:00.393Z,90.28
2022-12-03T16:43:26.859Z,89.65
2022-12-03T16:45:53.387Z,89.94
2022-12-03T16:48:19.814Z,89.97
2022-12-03T16:50:46.312Z,90.26
2022-12-03T16:53:12.889Z,89.56
2022-12-03T16:55:39.507Z,89.98
2022-12-03T16:58:06.536Z,89.56
2022-12-03T17:00:32.989Z,89.53
2022-12-03T17:02:59.550Z,89.92
2022-12-03T17:05:25.972Z,89.65
2022-12-03T17:07:52.430Z,89.47
2022-12-03T17:10:18.882Z,89.11
2022-12-03T17:13:08.828Z,89.07
2022-12-03T17:15:32.122Z,88.97
2022-12-03T17:17:58.621Z,88.32
2022-12-03T17:20:24.898Z,88.46
2022-12-03T17:22:51.471Z,88.93
2022-12-03T17:25:17.933Z,88.47
2022-12-03T17:27:45.505Z,88.26
2022-12-03T17:30:12.973Z,88.05
2022-12-03T17:32:39.470Z,88.45
2022-12-03T17:35:06.032Z,88.58
2022-12-03T17:37:32.590Z,87.80
2022-12-03T17:39:59.101Z,88.11
2022-12-03T17:42:26.057Z,88.53
2022-12-03T17:44:52.459Z,87.83
2022-12-03T17:47:18.817Z,87.97
2022-12-03T17:49:45.157Z,88.26
2022-12-03T17:52:11.484Z,87.31
2022-12-03T17:55:01.880Z,87.74
2022-12-03T17:57:24.447Z,87.11
2022-12-03T17:59:50.790Z,87.46
2022-12-03T18:02:17.376Z,87.61
2022-12-03T18:04:43.750Z,87.50
2022-12-03T18:07:10.093Z,87.32
2022-12-03T18:09:36.469Z,87.52
2022-12-03T18:12:03.033Z,87.83
2022-12-03T18:14:29.394Z,87.29
2022-12-03T18:16:55.696Z,86.64
2022-12-03T18:19:22.021Z,86.54
2022-12-03T18:21:48.455Z,86.65
2022-12-03T18:24:14.703Z,87.01
2022-12-03T18:26:41.124Z,86.65
2022-12-03T18:29:07.382Z,87.18
2022-12-03T18:31:33.756Z,86.47
2022-12-03T18:34:00.118Z,86.25
2022-12-03T18:36:29.943Z,86.94
2022-12-03T18:38:58.369Z,87.11
2022-12-03T18:41:24.923Z,87.33
2022-12-03T18:43:52.221Z,87.56
2022-12-03T18:46:45.066Z,88.13
2022-12-03T18:49:06.023Z,87.53
2022-12-03T18:51:32.373Z,87.69
2022-12-03T18:54:00.230Z,87.65
2022-12-03T18:56:26.606Z,87.79
2022-12-03T18:58:52.993Z,87.67
2022-12-03T19:01:21.951Z,87.40
2022-12-03T19:03:49.297Z,87.40
2022-12-03T19:06:20.848Z,87.69
2022-12-03T19:08:48.145Z,87.75
2022-12-03T19:11:15.366Z,87.52
2022-12-03T19:13:42.253Z,87.30
2022-12-03T19:16:10.210Z,87.43
2022-12-03T19:18:36.644Z,87.96
2022-12-03T19:21:11.820Z,87.67
2022-12-03T19:23:38.627Z,88.04
2022-12-03T19:26:06.918Z,87.84
2022-12-03T19:28:34.623Z,87.61
2022-12-03T19:31:04.105Z,87.36
2022-12-03T19:33:31.710Z,88.15
2022-12-03T19:35:59.497Z,87.05
2022-12-03T19:38:27.757Z,87.03
2022-12-03T19:41:04.777Z,86.91
2022-12-03T19:43:31.628Z,87.20
2022-12-03T19:46:02.594Z,87.25
2022-12-03T19:48:30.329Z,87.79
2022-12-03T19:51:19.476Z,87.81
2022-12-03T19:53:43.386Z,87.85
2022-12-03T19:56:16.483Z,87.98
2022-12-03T19:58:44.721Z,87.60
2022-12-03T20:01:14.340Z,87.58
2022-12-03T20:03:43.249Z,87.70
2022-12-03T20:06:10.520Z,87.49
2022-12-03T20:08:36.981Z,87.35
2022-12-03T20:11:10.438Z,87.47
2022-12-03T20:13:36.810Z,87.16
2022-12-03T20:16:07.999Z,87.37
2022-12-03T20:18:35.571Z,87.64
2022-12-03T20:21:03.635Z,87.54
2022-12-03T20:23:29.934Z,88.34
2022-12-03T20:25:56.297Z,87.92
2022-12-03T20:28:23.097Z,87.88
2022-12-03T20:30:59.937Z,87.82
2022-12-03T20:33:26.370Z,87.82
2022-12-03T20:35:54.399Z,88.51
2022-12-03T20:38:21.983Z,88.17
2022-12-03T20:40:48.753Z,88.00
2022-12-03T20:43:15.137Z,88.73
2022-12-03T20:45:41.542Z,89.07
2022-12-03T20:48:08.189Z,89.18
2022-12-03T20:50:34.610Z,89.00
2022-12-03T20:53:23.319Z,89.04
2022-12-03T20:55:55.147Z,88.68
2022-12-03T20:58:21.576Z,88.75
2022-12-03T21:00:47.861Z,89.04
2022-12-03T21:03:14.196Z,89.32
2022-12-03T21:05:40.951Z,88.88
2022-12-03T21:08:07.388Z,89.05
2022-12-03T21:10:38.548Z,89.40
2022-12-03T21:13:04.918Z,88.74
2022-12-03T21:15:31.216Z,88.96
2022-12-03T21:17:59.958Z,89.22
2022-12-03T21:20:26.388Z,89.56
2022-12-03T21:22:52.766Z,89.79
2022-12-03T21:25:19.110Z,89.66
2022-12-03T21:27:45.481Z,89.85
2022-12-03T21:30:12.112Z,89.67
2022-12-03T21:32:38.457Z,89.54
2022-12-03T21:35:05.184Z,89.41
2022-12-03T21:37:31.519Z,90.07
2022-12-03T21:39:57.997Z,90.20
2022-12-03T21:42:35.962Z,90.69
2022-12-03T21:45:03.942Z,90.49
2022-12-03T21:47:36.653Z,90.10
2022-12-03T21:50:06.174Z,90.41
2022-12-03T21:52:34.134Z,89.94
2022-12-03T21:55:00.572Z,90.32
2022-12-03T21:57:26.897Z,90.80
2022-12-03T21:59:55.371Z,90.20
2022-12-03T22:02:22.275Z,90.06
2022-12-03T22:04:51.653Z,89.85
2022-12-03T22:07:18.018Z,90.64
2022-12-03T22:09:44.345Z,90.00
2022-12-03T22:12:10.690Z,90.32
2022-12-03T22:14:37.054Z,90.08
2022-12-03T22:17:03.376Z,90.54
2022-12-03T22:19:29.804Z,90.38
2022-12-03T22:21:56.161Z,90.66
2022-12-03T22:24:22.495Z,90.42
2022-12-03T22:26:48.927Z,90.33
2022-12-03T22:29:15.153Z,90.50
2022-12-03T22:31:41.463Z,90.46
2022-12-03T22:34:07.833Z,90.61
2022-12-03T22:36:34.670Z,90.87
2022-12-03T22:39:00.969Z,90.52
2022-12-03T22:41:27.282Z,90.26
2022-12-03T22:43:53.625Z,90.18
2022-12-03T22:46:20.020Z,90.62
2022-12-03T22:48:46.605Z,90.69
2022-12-03T22:51:20.691Z,90.82
2022-12-03T22:53:48.098Z,90.71
2022-12-03T22:56:14.646Z,90.32
2022-12-03T22:58:40.988Z,90.61
2022-12-03T23:01:08.209Z,90.78
2022-12-03T23:03:34.690Z,90.67
2022-12-03T23:06:01.032Z,90.33
2022-12-03T23:08:27.448Z,89.83
2022-12-03T23:10:53.760Z,90.29
2022-12-03T23:13:20.584Z,90.08
2022-12-03T23:15:52.164Z,91.12
2022-12-03T23:18:19.633Z,90.52
2022-12-03T23:20:52.051Z,90.62
2022-12-03T23:23:20.319Z,90.24
2022-12-03T23:25:57.441Z,90.96
2022-12-03T23:28:24.453Z,90.58
2022-12-03T23:30:50.877Z,90.30
2022-12-03T23:33:17.139Z,90.93
2022-12-03T23:35:43.479Z,90.96
2022-12-03T23:38:09.816Z,90.58
2022-12-03T23:40:36.210Z,90.49
2022-12-03T23:43:02.571Z,90.52
2022-12-03T23:45:28.966Z,90.63
2022-12-03T23:47:58.298Z,90.96
2022-12-03T23:50:25.347Z,91.16
2022-12-03T23:52:51.685Z,91.15
2022-12-03T23:55:18.146Z,90.99
2022-12-03T23:57:44.396Z,90.74
